Time;durP1;ratioP1;P1;durP2;ratioP2;P2;SDS_P1;SDS_P2;PMS_P1;PMS_P2;Temp;Humidity;BMP_temperature;BMP_pressure;BME280_temperature;BME280_humidity;BME280_pressure;Samples;Min_cycle;Max_cycle;Signal;HPM_P1;HPM_P2
2023/09/17 00:02:20;;;;;;;13.70;12.32;;;;;;;16.98;81.58;101521.81;6248236;22;20465;-79
2023/09/17 00:04:47;;;;;;;16.02;12.30;;;;;;;16.96;81.85;101516.16;6249542;22;20013;-79
2023/09/17 00:07:13;;;;;;;13.25;12.13;;;;;;;16.95;81.24;101514.66;6249114;22;20016;-79
2023/09/17 00:09:40;;;;;;;14.93;13.38;;;;;;;16.94;81.99;101521.97;6249137;22;20402;-79
2023/09/17 00:12:07;;;;;;;14.00;12.70;;;;;;;16.92;81.93;101512.91;6249156;22;20425;-79
2023/09/17 00:14:34;;;;;;;14.32;12.82;;;;;;;16.91;81.90;101512.16;6249122;22;20016;-78
2023/09/17 00:17:01;;;;;;;15.27;13.80;;;;;;;16.90;82.09;101507.97;6248645;22;20055;-80
2023/09/17 00:19:27;;;;;;;13.57;12.38;;;;;;;16.89;82.34;101511.88;6248991;22;20059;-80
2023/09/17 00:21:54;;;;;;;15.77;13.98;;;;;;;16.88;82.63;101512.34;6248936;22;20016;-81
2023/09/17 00:24:21;;;;;;;16.40;13.50;;;;;;;16.85;82.83;101505.94;6221713;22;20398;-80
2023/09/17 00:26:47;;;;;;;15.02;13.52;;;;;;;16.85;82.73;101505.94;6222265;22;20410;-80
2023/09/17 00:29:14;;;;;;;18.17;13.80;;;;;;;16.82;83.14;101504.19;6249297;22;20458;-79
2023/09/17 00:31:42;;;;;;;14.50;13.13;;;;;;;16.83;83.11;101502.22;6248922;22;20059;-80
2023/09/17 00:34:08;;;;;;;16.23;14.65;;;;;;;16.82;83.52;101495.38;6221811;22;20031;-80
2023/09/17 00:36:35;;;;;;;14.52;13.05;;;;;;;16.81;83.43;101489.25;6249134;22;20454;-79
2023/09/17 00:39:03;;;;;;;14.93;13.40;;;;;;;16.80;83.63;101487.03;6197240;22;20079;-79
2023/09/17 00:41:30;;;;;;;16.13;13.63;;;;;;;16.79;83.83;101488.25;6248086;22;20023;-79
2023/09/17 00:43:57;;;;;;;15.15;13.63;;;;;;;16.77;83.56;101486.03;6222182;22;20457;-79
2023/09/17 00:46:24;;;;;;;14.77;13.48;;;;;;;16.76;83.69;101489.94;6248028;22;20052;-79
2023/09/17 00:48:51;;;;;;;16.33;13.95;;;;;;;16.73;83.57;101490.84;6222150;22;20468;-79
2023/09/17 00:51:18;;;;;;;15.13;13.45;;;;;;;16.71;83.83;101482.50;6221751;22;20453;-79
2023/09/17 00:53:45;;;;;;;17.98;14.73;;;;;;;16.71;83.44;101481.75;6221952;22;20418;-79
2023/09/17 00:56:13;;;;;;;19.40;14.13;;;;;;;16.70;84.15;101469.53;6221717;22;20174;-79
2023/09/17 00:58:40;;;;;;;16.15;14.48;;;;;;;16.68;83.38;101472.69;6248864;22;20025;-79
2023/09/17 01:01:11;;;;;;;16.83;15.02;;;;;;;16.68;83.69;101461.94;6221066;22;20354;-78
2023/09/17 01:03:39;;;;;;;17.52;14.85;;;;;;;16.67;83.89;101471.19;6248799;22;20402;-79
2023/09/17 01:06:09;;;;;;;16.67;14.95;;;;;;;16.65;83.81;101470.91;6249114;22;20024;-78
2023/09/17 01:08:37;;;;;;;16.38;14.63;;;;;;;16.65;83.27;101454.78;6221337;22;20044;-79
2023/09/17 01:11:04;;;;;;;17.42;15.00;;;;;;;16.63;83.75;101455.22;6249090;22;20016;-79
2023/09/17 01:13:31;;;;;;;19.15;14.85;;;;;;;16.61;83.94;101451.50;6220529;22;20072;-78
2023/09/17 01:15:59;;;;;;;16.73;14.80;;;;;;;16.60;83.56;101442.72;6221980;22;20025;-79
2023/09/17 01:18:27;;;;;;;16.60;14.35;;;;;;;16.59;84.06;101441.22;6247999;22;20017;-79
2023/09/17 01:21:22;;;;;;;16.42;14.73;;;;;;;16.59;83.58;101437.78;6222313;22;20021;-79
2023/09/17 01:24:17;;;;;;;16.02;14.38;;;;;;;16.58;83.51;101433.63;6221882;22;20067;-79
2023/09/17 01:26:46;;;;;;;17.90;15.73;;;;;;;16.57;83.71;101437.50;6182348;22;20025;-79
2023/09/17 01:29:13;;;;;;;17.00;15.38;;;;;;;16.55;83.59;101431.88;6220540;22;20411;-79
2023/09/17 01:31:40;;;;;;;18.85;15.40;;;;;;;16.53;83.77;101432.31;6221217;22;20040;-79
2023/09/17 01:34:07;;;;;;;17.65;15.25;;;;;;;16.53;83.73;101434.28;6222426;22;20133;-78
2023/09/17 01:36:39;;;;;;;18.48;15.85;;;;;;;16.53;83.28;101437.69;6249838;22;20071;-78
2023/09/17 01:39:16;;;;;;;18.77;15.25;;;;;;;16.55;83.71;101442.63;6249969;22;20387;-79
2023/09/17 01:41:44;;;;;;;16.85;15.15;;;;;;;16.54;83.13;101435.75;6249437;22;20067;-79
2023/09/17 01:44:12;;;;;;;18.73;14.85;;;;;;;16.54;83.13;101435.75;6249054;22;20023;-80
2023/09/17 01:46:41;;;;;;;18.17;15.25;;;;;;;16.54;83.16;101430.38;6249841;22;20489;-79
2023/09/17 01:49:10;;;;;;;16.45;14.65;;;;;;;16.53;83.10;101424.25;6222510;22;20095;-80
2023/09/17 01:51:38;;;;;;;18.20;15.23;;;;;;;16.53;83.21;101421.56;6249822;22;20067;-79
2023/09/17 01:54:06;;;;;;;16.80;14.77;;;;;;;16.51;83.52;101415.91;6250222;22;20016;-80
2023/09/17 01:56:39;;;;;;;19.55;16.02;;;;;;;16.50;83.20;101406.38;6222528;22;20025;-80
2023/09/17 01:59:06;;;;;;;16.33;14.63;;;;;;;16.50;83.70;101401.00;6222227;22;20111;-80
2023/09/17 02:01:33;;;;;;;17.30;15.55;;;;;;;16.48;83.27;101403.41;6249795;22;20012;-80
2023/09/17 02:04:00;;;;;;;17.00;14.63;;;;;;;16.48;83.46;101400.72;6222884;22;20027;-80
2023/09/17 02:06:27;;;;;;;18.42;15.27;;;;;;;16.46;83.54;101408.50;6249322;22;20056;-79
2023/09/17 02:08:54;;;;;;;18.15;15.52;;;;;;;16.45;83.26;101415.09;6250178;22;20369;-80
2023/09/17 02:11:20;;;;;;;17.15;15.45;;;;;;;16.46;82.66;101421.94;6222144;22;20021;-80
2023/09/17 02:13:47;;;;;;;18.02;16.08;;;;;;;16.46;82.37;101430.00;6223368;22;20067;-79
2023/09/17 02:16:14;;;;;;;16.98;15.15;;;;;;;16.47;82.37;101422.69;6249806;22;20017;-80
2023/09/17 02:18:41;;;;;;;20.65;15.90;;;;;;;16.48;82.55;101426.84;6249486;22;20425;-80
2023/09/17 02:21:07;;;;;;;17.92;15.02;;;;;;;16.48;82.34;101424.16;6222389;22;20454;-79
2023/09/17 02:23:34;;;;;;;19.75;15.40;;;;;;;16.48;82.47;101422.22;6222312;22;20375;-80
2023/09/17 02:26:04;;;;;;;19.02;15.88;;;;;;;16.47;82.45;101417.31;6223331;22;20518;-80
2023/09/17 02:28:33;;;;;;;18.17;15.23;;;;;;;16.46;82.90;101413.13;6249721;22;20024;-79
2023/09/17 02:31:00;;;;;;;16.42;14.85;;;;;;;16.44;82.57;101408.22;6250148;22;20104;-79
2023/09/17 02:33:26;;;;;;;16.52;14.52;;;;;;;16.44;82.70;101410.16;6249109;22;20039;-80
2023/09/17 02:35:53;;;;;;;21.15;14.95;;;;;;;16.42;82.18;101407.94;6222790;22;20079;-79
2023/09/17 02:38:20;;;;;;;17.23;15.50;;;;;;;16.43;82.33;101419.44;6248947;22;20443;-79
2023/09/17 02:40:47;;;;;;;16.08;14.38;;;;;;;16.43;82.15;101417.50;6248788;22;20347;-79
2023/09/17 02:43:15;;;;;;;18.02;15.10;;;;;;;16.43;82.50;101412.13;6221837;22;20451;-79
2023/09/17 02:45:43;;;;;;;16.83;15.13;;;;;;;16.44;82.12;101415.53;6249343;22;20024;-80
2023/09/17 02:48:11;;;;;;;17.42;15.43;;;;;;;16.44;82.70;101418.22;6249514;22;20020;-80
2023/09/17 02:50:41;;;;;;;17.48;15.25;;;;;;;16.44;82.00;101418.22;6197309;22;20071;-80
2023/09/17 02:53:08;;;;;;;16.63;14.93;;;;;;;16.45;82.54;101419.72;6222044;22;20492;-80
2023/09/17 02:55:34;;;;;;;16.40;14.73;;;;;;;16.45;82.56;101436.56;6221687;22;20048;-80
2023/09/17 02:58:04;;;;;;;17.05;15.25;;;;;;;16.44;83.03;101442.41;6222366;22;20024;-80
2023/09/17 03:00:32;;;;;;;17.38;15.63;;;;;;;16.45;82.75;101441.22;6249598;22;20478;-80
2023/09/17 03:03:00;;;;;;;16.77;15.15;;;;;;;16.44;82.38;101429.72;6222519;22;20017;-79
2023/09/17 03:05:27;;;;;;;17.75;16.00;;;;;;;16.43;82.58;101430.94;6221790;22;20091;-80
2023/09/17 03:07:54;;;;;;;16.27;14.77;;;;;;;16.43;82.75;101427.50;6222529;22;20016;-80
2023/09/17 03:10:22;;;;;;;17.38;15.30;;;;;;;16.44;82.92;101420.91;6221183;22;20035;-79
2023/09/17 03:12:49;;;;;;;16.00;14.40;;;;;;;16.44;82.96;101418.97;6222216;22;20204;-80
2023/09/17 03:15:16;;;;;;;16.50;14.77;;;;;;;16.44;82.75;101410.16;6197170;22;20529;-80
2023/09/17 03:17:43;;;;;;;17.35;14.63;;;;;;;16.42;83.13;101401.84;6249539;22;20017;-79
2023/09/17 03:20:16;;;;;;;16.58;14.85;;;;;;;16.41;83.97;101401.09;6222081;22;20016;-80
2023/09/17 03:22:44;;;;;;;16.38;14.77;;;;;;;16.38;84.80;101399.34;6222396;22;20019;-82
2023/09/17 03:25:12;;;;;;;18.05;15.00;;;;;;;16.33;84.99;101406.13;6221627;22;20075;-81
2023/09/17 03:27:43;;;;;;;19.67;15.82;;;;;;;16.28;87.78;101397.97;6222083;22;20430;-82
2023/09/17 03:30:11;;;;;;;19.05;16.15;;;;;;;16.24;87.37;101402.78;6222036;22;20076;-82
2023/09/17 03:32:38;;;;;;;18.60;16.08;;;;;;;16.20;89.69;101400.25;6221656;22;20516;-82
2023/09/17 03:35:24;;;;;;;16.85;15.13;;;;;;;16.15;89.05;101403.59;6221814;22;20044;-81
2023/09/17 03:37:51;;;;;;;19.25;15.85;;;;;;;16.08;89.78;101400.53;6197718;22;20017;-81
2023/09/17 03:40:19;;;;;;;21.02;16.52;;;;;;;16.06;92.07;101400.25;6196272;22;20013;-81
2023/09/17 03:42:47;;;;;;;19.30;16.02;;;;;;;16.02;93.06;101393.09;6222798;22;20075;-81
2023/09/17 03:45:14;;;;;;;23.05;16.52;;;;;;;15.99;95.29;101396.00;6222158;22;20450;-81
2023/09/17 03:47:43;;;;;;;19.50;16.52;;;;;;;15.97;95.62;101385.72;6222363;22;20070;-81
2023/09/17 03:50:14;;;;;;;18.65;15.93;;;;;;;15.88;94.58;101390.41;6249357;22;20023;-80
2023/09/17 03:52:47;;;;;;;16.83;14.90;;;;;;;15.83;93.91;101385.69;6249777;22;20016;-81
2023/09/17 03:55:14;;;;;;;15.38;13.90;;;;;;;15.77;92.66;101392.88;6221509;22;20016;-80
2023/09/17 03:57:44;;;;;;;16.08;14.27;;;;;;;15.71;92.49;101392.03;6222204;22;20020;-80
2023/09/17 04:00:12;;;;;;;16.05;13.32;;;;;;;15.65;91.45;101389.97;6222055;22;20340;-80
2023/09/17 04:02:41;;;;;;;18.05;14.02;;;;;;;15.63;92.63;101381.63;6222105;22;20047;-80
2023/09/17 04:05:14;;;;;;;16.40;13.90;;;;;;;15.58;92.94;101393.03;6249364;22;20541;-81
2023/09/17 04:07:44;;;;;;;16.33;14.63;;;;;;;15.54;93.39;101387.06;6248650;22;20754;-80
2023/09/17 04:10:12;;;;;;;17.98;14.45;;;;;;;15.49;94.39;101389.63;6249302;22;20012;-79
2023/09/17 04:12:40;;;;;;;16.33;14.65;;;;;;;15.43;94.33;101381.47;6248837;22;20479;-80
2023/09/17 04:15:13;;;;;;;17.08;14.55;;;;;;;15.39;95.73;101383.56;6221855;22;20030;-81
2023/09/17 04:17:40;;;;;;;16.02;14.48;;;;;;;15.37;95.20;101367.19;6222111;22;20089;-81
2023/09/17 04:20:11;;;;;;;16.67;15.00;;;;;;;15.34;97.01;101368.09;6222363;22;20078;-81
2023/09/17 04:22:37;;;;;;;18.83;15.35;;;;;;;15.27;96.64;101365.75;6248521;22;20012;-81
2023/09/17 04:25:09;;;;;;;19.38;15.98;;;;;;;15.22;97.87;101361.00;6249629;22;20465;-81
2023/09/17 04:27:40;;;;;;;18.80;14.70;;;;;;;15.18;97.95;101365.84;6222057;22;20399;-81
2023/09/17 04:30:08;;;;;;;19.75;15.32;;;;;;;15.13;98.78;101366.44;6221586;22;20020;-81
2023/09/17 04:32:43;;;;;;;15.38;13.88;;;;;;;15.12;98.70;101356.94;6221929;22;20402;-81
2023/09/17 04:35:12;;;;;;;16.38;14.70;;;;;;;15.07;99.32;101360.22;6221900;22;20024;-81
2023/09/17 04:37:40;;;;;;;15.85;13.75;;;;;;;15.07;99.63;101354.88;6248523;22;20316;-81
2023/09/17 04:40:08;;;;;;;20.45;14.85;;;;;;;15.02;99.57;101356.97;6221512;22;20516;-82
2023/09/17 04:42:46;;;;;;;17.65;14.88;;;;;;;15.01;100.00;101352.81;6248993;22;20450;-81
2023/09/17 04:45:32;;;;;;;20.73;15.82;;;;;;;14.97;100.00;101349.53;6221748;22;20348;-82
2023/09/17 04:48:00;;;;;;;19.70;16.50;;;;;;;14.94;100.00;101347.78;6222170;22;20336;-81
2023/09/17 04:50:28;;;;;;;16.98;15.27;;;;;;;14.91;100.00;101353.28;6221180;22;20016;-81
2023/09/17 04:52:56;;;;;;;18.60;16.05;;;;;;;14.88;100.00;101346.16;6221296;22;20075;-80
2023/09/17 04:55:23;;;;;;;20.27;16.50;;;;;;;14.86;100.00;101337.81;6220999;22;20028;-81
2023/09/17 04:57:51;;;;;;;18.35;16.33;;;;;;;14.86;100.00;101345.88;6221762;22;20012;-80
2023/09/17 05:00:20;;;;;;;19.25;17.15;;;;;;;14.85;100.00;101344.38;6196332;22;20908;-80
2023/09/17 05:02:48;;;;;;;18.48;16.48;;;;;;;14.86;100.00;101356.59;6221405;22;20052;-80
2023/09/17 05:05:18;;;;;;;19.02;17.02;;;;;;;14.87;100.00;101363.44;6196332;22;20028;-80
2023/09/17 05:07:48;;;;;;;22.17;17.33;;;;;;;14.87;100.00;101360.75;6223628;22;20096;-80
2023/09/17 05:10:15;;;;;;;18.60;16.63;;;;;;;14.84;100.00;101361.66;6224807;22;20020;-81
2023/09/17 05:12:43;;;;;;;19.30;16.92;;;;;;;14.85;100.00;101365.81;6199879;22;20048;-81
2023/09/17 05:15:11;;;;;;;20.77;17.10;;;;;;;14.85;100.00;101371.19;6224710;22;20044;-81
2023/09/17 05:17:38;;;;;;;19.15;16.15;;;;;;;14.83;100.00;101363.59;6252366;22;20013;-82
2023/09/17 05:20:06;;;;;;;21.33;16.70;;;;;;;14.80;100.00;101367.19;6224600;22;20048;-81
2023/09/17 05:22:34;;;;;;;21.05;16.60;;;;;;;14.81;100.00;101360.63;6252065;22;20217;-81
2023/09/17 05:25:03;;;;;;;23.65;16.23;;;;;;;14.77;100.00;101360.06;6252169;22;20363;-81
2023/09/17 05:27:30;;;;;;;19.17;17.25;;;;;;;14.73;100.00;101356.81;6251213;22;20016;-81
2023/09/17 05:29:59;;;;;;;17.35;15.57;;;;;;;14.72;100.00;101357.25;6200075;22;20099;-81
2023/09/17 05:32:27;;;;;;;20.42;16.52;;;;;;;14.67;100.00;101362.03;6224120;22;20088;-81
2023/09/17 05:34:58;;;;;;;18.95;15.77;;;;;;;14.65;100.00;101355.66;6251423;22;20024;-80
2023/09/17 05:37:26;;;;;;;20.45;16.88;;;;;;;14.64;100.00;101362.94;6223934;22;20013;-82
2023/09/17 05:39:53;;;;;;;18.77;16.42;;;;;;;14.65;100.00;101361.00;6199558;22;20020;-81
2023/09/17 05:42:20;;;;;;;18.77;16.30;;;;;;;14.64;100.00;101365.63;6223726;22;20498;-81
2023/09/17 05:44:47;;;;;;;22.52;17.20;;;;;;;14.61;100.00;101361.16;6225057;22;20028;-81
2023/09/17 05:47:13;;;;;;;19.52;17.25;;;;;;;14.58;100.00;101358.66;6224632;22;20017;-81
2023/09/17 05:49:41;;;;;;;23.30;18.15;;;;;;;14.57;100.00;101359.84;6223927;22;20016;-81
2023/09/17 05:52:07;;;;;;;20.02;17.35;;;;;;;14.57;100.00;101354.47;6224306;22;20017;-81
2023/09/17 05:54:34;;;;;;;21.98;17.00;;;;;;;14.55;100.00;101357.59;6224456;22;20021;-81
2023/09/17 05:57:01;;;;;;;20.67;17.27;;;;;;;14.53;100.00;101362.66;6224989;22;20020;-82
2023/09/17 05:59:27;;;;;;;20.10;17.27;;;;;;;14.53;100.00;101364.59;6223971;22;20059;-81
2023/09/17 06:01:58;;;;;;;21.40;17.98;;;;;;;14.55;100.00;101362.22;6225052;22;20470;-82
2023/09/17 06:04:26;;;;;;;19.25;16.98;;;;;;;14.52;100.00;101371.91;6250749;22;20482;-82
2023/09/17 06:06:54;;;;;;;19.90;17.58;;;;;;;14.54;100.00;101374.13;6224632;22;20043;-80
2023/09/17 06:09:20;;;;;;;21.83;18.33;;;;;;;14.54;100.00;101369.53;6223778;22;20028;-81
2023/09/17 06:11:47;;;;;;;21.38;17.08;;;;;;;14.54;100.00;101358.81;6224548;22;20059;-81
2023/09/17 06:14:17;;;;;;;21.27;17.40;;;;;;;14.51;100.00;101370.41;6223767;22;20532;-80
2023/09/17 06:16:44;;;;;;;21.42;17.88;;;;;;;14.51;100.00;101359.69;6224563;22;20071;-81
2023/09/17 06:19:23;;;;;;;29.20;18.40;;;;;;;14.52;100.00;101357.75;6221339;22;20067;-81
2023/09/17 06:21:52;;;;;;;20.67;17.73;;;;;;;14.52;100.00;101360.44;6222639;22;20024;-80
2023/09/17 06:24:18;;;;;;;19.73;16.98;;;;;;;14.52;100.00;101360.44;6249233;22;20099;-81
2023/09/17 06:26:45;;;;;;;19.42;17.40;;;;;;;14.53;100.00;101370.72;6222949;22;20465;-80
2023/09/17 06:29:12;;;;;;;19.63;17.27;;;;;;;14.53;100.00;101368.03;6249655;22;20025;-79
2023/09/17 06:31:40;;;;;;;22.15;17.55;;;;;;;14.55;100.00;101368.31;6249587;22;20020;-80
2023/09/17 06:34:07;;;;;;;19.73;16.80;;;;;;;14.56;100.00;101364.44;6249075;22;20474;-80
2023/09/17 06:36:39;;;;;;;21.13;17.13;;;;;;;14.59;100.00;101363.56;6222317;22;20016;-80
2023/09/17 06:39:06;;;;;;;19.48;17.10;;;;;;;14.59;100.00;101362.81;6222147;22;20024;-79
2023/09/17 06:41:33;;;;;;;22.27;16.67;;;;;;;14.59;100.00;101370.84;6249230;22;20048;-79
2023/09/17 06:44:04;;;;;;;18.98;16.85;;;;;;;14.60;100.00;101372.34;6249940;22;20052;-80
2023/09/17 06:46:31;;;;;;;20.63;16.85;;;;;;;14.61;100.00;101374.56;6249189;22;20017;-80
2023/09/17 06:48:58;;;;;;;20.83;16.85;;;;;;;14.61;100.00;101369.19;6222475;22;20013;-79
2023/09/17 06:51:25;;;;;;;20.25;17.13;;;;;;;14.63;100.00;101368.75;6249043;22;20017;-82
2023/09/17 06:53:51;;;;;;;20.55;17.23;;;;;;;14.64;100.00;101370.97;6249862;22;20055;-81
2023/09/17 06:56:19;;;;;;;19.88;16.35;;;;;;;14.65;100.00;101363.69;6249168;22;20013;-79
2023/09/17 06:58:46;;;;;;;20.42;16.33;;;;;;;14.66;100.00;101367.84;6249891;22;20020;-81
2023/09/17 07:01:12;;;;;;;19.38;16.83;;;;;;;14.67;100.00;101363.97;6249482;22;20095;-79
2023/09/17 07:03:39;;;;;;;23.05;17.10;;;;;;;14.68;100.00;101363.53;6248958;22;20423;-80
2023/09/17 07:06:05;;;;;;;19.90;16.17;;;;;;;14.69;100.00;101372.31;6249910;22;20443;-80
2023/09/17 07:08:32;;;;;;;19.83;16.17;;;;;;;14.68;100.00;101370.81;6249479;22;20021;-80
2023/09/17 07:11:00;;;;;;;22.27;17.85;;;;;;;14.71;100.00;101372.59;6223106;22;20016;-80
2023/09/17 07:13:27;;;;;;;19.33;17.15;;;;;;;14.73;100.00;101370.22;6249223;22;20020;-80
2023/09/17 07:15:54;;;;;;;22.60;17.63;;;;;;;14.73;100.00;101372.16;6249344;22;20460;-78
2023/09/17 07:18:21;;;;;;;22.55;17.20;;;;;;;14.73;100.00;101380.94;6249126;22;20446;-84
2023/09/17 07:20:49;;;;;;;26.33;18.27;;;;;;;14.75;100.00;101381.22;6197224;22;20024;-79
2023/09/17 07:23:16;;;;;;;20.58;17.75;;;;;;;14.75;100.00;101381.22;6222508;22;20016;-78
2023/09/17 07:25:46;;;;;;;19.10;17.13;;;;;;;14.75;100.00;101367.81;6222237;22;20476;-88
2023/09/17 07:28:13;;;;;;;20.70;17.75;;;;;;;14.75;100.00;101380.47;6249366;22;20529;-80
2023/09/17 07:30:39;;;;;;;20.52;17.13;;;;;;;14.75;100.00;101388.53;6248425;22;20450;-80
2023/09/17 07:33:06;;;;;;;20.50;17.48;;;;;;;14.74;100.00;101377.06;6249752;22;20374;-84
2023/09/17 07:35:34;;;;;;;19.10;17.05;;;;;;;14.77;100.00;101391.50;6197305;22;20016;-83
2023/09/17 07:38:01;;;;;;;21.00;17.20;;;;;;;14.76;100.00;101384.66;6249719;22;20027;-83
2023/09/17 07:40:27;;;;;;;20.95;16.95;;;;;;;14.76;100.00;101390.00;6248254;22;20025;-84
2023/09/17 07:42:54;;;;;;;21.58;17.92;;;;;;;14.75;100.00;101383.91;6249533;22;20466;-81
2023/09/17 07:45:21;;;;;;;19.60;17.65;;;;;;;14.76;100.00;101390.00;6248614;22;20023;-88
2023/09/17 07:47:48;;;;;;;21.30;16.55;;;;;;;14.77;100.00;101391.50;6250157;22;20012;-86
2023/09/17 07:50:15;;;;;;;21.27;16.15;;;;;;;14.78;100.00;101384.94;6223237;22;20005;-87
2023/09/17 07:52:42;;;;;;;19.02;16.33;;;;;;;14.80;100.00;101391.31;6223049;22;20009;-87
2023/09/17 07:55:09;;;;;;;18.38;16.40;;;;;;;14.82;100.00;101394.28;6197434;22;20051;-86
2023/09/17 07:57:36;;;;;;;21.05;16.73;;;;;;;14.84;100.00;101386.53;6222831;22;20024;-88
2023/09/17 08:00:04;;;;;;;19.48;15.18;;;;;;;14.85;100.00;101385.34;6223324;22;20532;-89
2023/09/17 08:02:38;;;;;;;21.58;15.90;;;;;;;14.85;100.00;101392.63;6250456;22;20565;-86
2023/09/17 08:05:07;;;;;;;18.58;15.73;;;;;;;14.83;100.00;101382.34;6197511;22;20429;-90
2023/09/17 08:07:34;;;;;;;18.95;15.98;;;;;;;14.85;100.00;101382.66;6249254;22;20035;-85
2023/09/17 08:10:03;;;;;;;19.27;15.88;;;;;;;14.89;100.00;101377.13;6222106;22;20027;-84
2023/09/17 08:12:32;;;;;;;18.15;15.88;;;;;;;14.94;100.00;101389.91;6248667;22;20024;-83
2023/09/17 08:14:59;;;;;;;17.52;15.82;;;;;;;14.98;100.00;101375.16;6249081;22;20012;-85
2023/09/17 08:17:25;;;;;;;19.60;16.35;;;;;;;14.99;100.00;101373.97;6222086;22;20017;-85
2023/09/17 08:19:54;;;;;;;18.70;16.38;;;;;;;15.03;100.00;101368.44;6221837;22;20032;-85
2023/09/17 08:22:22;;;;;;;17.38;15.57;;;;;;;15.04;100.00;101377.97;6248950;22;20051;-84
2023/09/17 08:24:48;;;;;;;18.52;16.40;;;;;;;15.07;100.00;101371.69;6249460;22;20401;-85
2023/09/17 08:27:17;;;;;;;18.60;15.60;;;;;;;15.13;100.00;101374.50;6222600;22;20017;-87
2023/09/17 08:29:43;;;;;;;17.38;15.48;;;;;;;15.15;100.00;101369.41;6250687;22;20013;-92
2023/09/17 08:32:11;;;;;;;21.08;16.55;;;;;;;15.17;100.00;101372.41;6224862;22;20029;-91
2023/09/17 08:34:38;;;;;;;20.52;16.35;;;;;;;15.22;100.00;101371.75;6199073;22;20742;-90
2023/09/17 08:37:04;;;;;;;18.25;16.35;;;;;;;15.27;100.00;101361.13;6200984;22;20166;-91
2023/09/17 08:39:31;;;;;;;20.02;16.00;;;;;;;15.33;100.00;101363.94;6225185;22;20043;-94
2023/09/17 08:42:01;;;;;;;21.10;16.88;;;;;;;15.37;100.00;101367.19;6227660;22;20028;-91
2023/09/17 08:44:30;;;;;;;17.98;15.98;;;;;;;15.35;100.00;101361.53;6224562;22;20017;-95
2023/09/17 08:46:59;;;;;;;18.48;16.17;;;;;;;15.38;100.00;101357.94;6200193;22;20043;-94
2023/09/17 08:49:28;;;;;;;22.40;17.98;;;;;;;15.39;100.00;101354.06;6224567;22;20020;-90
2023/09/17 08:51:57;;;;;;;21.88;17.52;;;;;;;15.44;100.00;101358.06;6198754;22;20027;-90
2023/09/17 08:54:37;;;;;;;19.17;16.38;;;;;;;15.47;100.00;101357.16;6223288;22;20028;-91
2023/09/17 08:57:06;;;;;;;18.30;16.45;;;;;;;15.48;100.00;101359.38;6200182;22;20451;-91
2023/09/17 08:59:40;;;;;;;18.15;16.23;;;;;;;15.55;100.00;101361.72;6198526;22;20026;-91
2023/09/17 09:02:25;;;;;;;20.65;17.10;;;;;;;15.60;100.00;101358.41;6224417;22;20484;-90
2023/09/17 09:04:52;;;;;;;19.02;15.90;;;;;;;15.62;100.00;101360.63;6226106;22;20020;-92
2023/09/17 09:07:23;;;;;;;18.88;15.18;;;;;;;15.63;100.00;101354.78;6233224;22;20020;-92
2023/09/17 09:09:51;;;;;;;17.70;15.68;;;;;;;15.65;100.00;101360.44;6214045;22;20019;-93
2023/09/17 09:12:18;;;;;;;17.63;15.75;;;;;;;15.66;100.00;101361.19;6212952;22;20001;-90
2023/09/17 09:14:47;;;;;;;18.13;15.07;;;;;;;15.60;100.00;101358.41;6214462;22;20012;-94
2023/09/17 09:17:16;;;;;;;16.80;15.13;;;;;;;15.62;100.00;101356.00;6241231;22;20016;-96
2023/09/17 09:19:43;;;;;;;19.65;15.70;;;;;;;15.62;100.00;101355.25;6182374;23;20032;-91
2023/09/17 09:22:10;;;;;;;21.02;14.85;;;;;;;15.61;100.00;101361.81;6172129;23;20017;-86
2023/09/17 09:24:47;;;;;;;16.77;15.07;;;;;;;15.59;100.00;101356.19;6195074;23;20021;-87
2023/09/17 09:27:15;;;;;;;18.50;15.52;;;;;;;15.62;100.00;101360.63;6194242;23;20021;-79
2023/09/17 09:29:44;;;;;;;21.08;16.45;;;;;;;15.62;100.00;101347.19;6220549;23;20048;-81
2023/09/17 09:32:12;;;;;;;18.25;16.17;;;;;;;15.64;100.00;101350.91;6220308;23;20021;-92
2023/09/17 09:34:43;;;;;;;18.83;16.80;;;;;;;15.70;100.00;101350.28;6173195;23;20120;-92
2023/09/17 09:37:10;;;;;;;18.73;16.17;;;;;;;15.71;100.00;101349.81;6223164;23;20013;-92
2023/09/17 09:39:37;;;;;;;20.67;16.63;;;;;;;15.76;100.00;101343.06;6221790;23;20107;-88
2023/09/17 09:42:06;;;;;;;19.13;17.10;;;;;;;15.78;100.00;101343.34;6193095;23;20383;-87
2023/09/17 09:44:34;;;;;;;21.40;17.38;;;;;;;15.84;100.00;101350.31;6192630;23;20023;-86
2023/09/17 09:47:04;;;;;;;23.25;17.85;;;;;;;15.86;100.00;101347.16;6192969;23;20017;-85
2023/09/17 09:49:44;;;;;;;20.35;17.48;;;;;;;15.88;100.00;101353.56;6219707;23;20044;-85
2023/09/17 09:52:12;;;;;;;22.95;17.42;;;;;;;15.89;100.00;101347.00;6192783;23;20005;-82
2023/09/17 09:54:40;;;;;;;20.63;18.42;;;;;;;15.91;100.00;101349.97;6219215;23;20037;-85
2023/09/17 09:57:07;;;;;;;21.60;18.80;;;;;;;15.96;100.00;101349.31;6193604;23;20111;-84
2023/09/17 09:59:35;;;;;;;21.25;18.55;;;;;;;16.04;100.00;101349.69;6194749;23;20100;-87
2023/09/17 10:02:03;;;;;;;24.23;18.23;;;;;;;16.10;100.00;101347.09;6168138;23;20025;-86
2023/09/17 10:04:30;;;;;;;21.45;18.80;;;;;;;16.10;100.00;101342.47;6192634;23;20039;-86
2023/09/17 10:06:57;;;;;;;21.75;18.63;;;;;;;16.08;100.00;101336.06;6219592;23;20009;-87
2023/09/17 10:09:25;;;;;;;22.42;18.73;;;;;;;16.08;100.00;101330.69;6167225;23;20048;-85
2023/09/17 10:11:53;;;;;;;24.23;18.73;;;;;;;16.11;100.00;101327.09;6193090;23;20020;-86
2023/09/17 10:14:24;;;;;;;29.92;19.90;;;;;;;16.16;100.00;101323.75;6193559;23;20021;-87
2023/09/17 10:16:51;;;;;;;28.00;20.70;;;;;;;16.19;100.00;101317.47;6220524;23;20023;-86
2023/09/17 10:19:21;;;;;;;23.85;18.85;;;;;;;16.22;100.00;101317.28;6219224;23;20020;-85
2023/09/17 10:21:48;;;;;;;27.15;19.77;;;;;;;16.27;100.00;101321.25;6219485;23;20507;-82
2023/09/17 10:24:18;;;;;;;26.92;20.77;;;;;;;16.30;100.00;101320.31;6219328;23;20088;-82
2023/09/17 10:26:46;;;;;;;24.17;20.55;;;;;;;16.38;100.00;101313.38;6219232;23;20020;-83
2023/09/17 10:29:14;;;;;;;26.92;20.35;;;;;;;16.43;100.00;101310.00;6192526;23;20024;-81
2023/09/17 10:31:42;;;;;;;24.10;19.63;;;;;;;16.51;100.00;101307.69;6219367;23;20017;-81
2023/09/17 10:34:12;;;;;;;25.75;19.92;;;;;;;16.54;100.00;101306.75;6192096;23;20067;-80
2023/09/17 10:36:42;;;;;;;24.05;20.65;;;;;;;16.59;100.00;101304.16;6218935;23;20072;-83
2023/09/17 10:39:10;;;;;;;23.30;20.80;;;;;;;16.64;100.00;101305.47;6219102;23;20067;-81
2023/09/17 10:41:37;;;;;;;28.10;22.00;;;;;;;16.65;100.00;101306.94;6192160;23;20036;-82
2023/09/17 10:44:06;;;;;;;25.02;20.45;;;;;;;16.63;100.00;101299.31;6219551;23;20036;-84
2023/09/17 10:46:38;;;;;;;27.00;21.20;;;;;;;16.66;100.00;101295.72;6218634;23;20110;-81
2023/09/17 10:49:06;;;;;;;30.42;21.30;;;;;;;16.71;100.00;101288.94;6219772;23;20017;-85
2023/09/17 10:51:33;;;;;;;24.60;21.08;;;;;;;16.75;100.00;101288.75;6218878;23;20134;-83
2023/09/17 10:54:00;;;;;;;26.55;20.92;;;;;;;16.78;100.00;101298.56;6192006;23;20036;-83
2023/09/17 10:56:30;;;;;;;25.30;22.60;;;;;;;16.82;100.00;101296.41;6218498;23;20056;-83
2023/09/17 10:58:59;;;;;;;28.77;22.52;;;;;;;16.87;100.00;101288.41;6218670;23;20049;-82
2023/09/17 11:01:34;;;;;;;29.08;22.77;;;;;;;16.91;100.00;101296.28;6191735;23;20087;-81
2023/09/17 11:04:07;;;;;;;27.92;22.73;;;;;;;16.93;100.00;101291.91;6219213;23;20032;-81
2023/09/17 11:06:35;;;;;;;24.48;21.75;;;;;;;16.98;100.00;101293.19;6218201;23;20048;-80
2023/09/17 11:09:04;;;;;;;26.13;21.77;;;;;;;16.98;100.00;101293.19;6192294;23;20051;-81
2023/09/17 11:11:32;;;;;;;30.67;24.23;;;;;;;17.00;100.00;101298.84;6218680;23;20025;-81